Time;durP1;ratioP1;P1;durP2;ratioP2;P2;SDS_P1;SDS_P2;PMS_P1;PMS_P2;Temp;Humidity;BMP_temperature;BMP_pressure;BME280_temperature;BME280_humidity;BME280_pressure;Samples;Min_cycle;Max_cycle;Signal;HPM_P1;HPM_P2
2023/12/09 00:02:49;;;;;;;4.45;1.92;;;15.80;60.10;;;;;;6075192;22;45090;-62
2023/12/09 00:05:16;;;;;;;4.72;2.08;;;15.80;60.10;;;;;;6033878;22;45266;-62
2023/12/09 00:08:11;;;;;;;5.38;2.10;;;15.80;60.20;;;;;;6057436;22;45195;-62
2023/12/09 00:10:41;;;;;;;4.15;1.75;;;15.80;60.20;;;;;;6030617;22;46254;-63
2023/12/09 00:13:36;;;;;;;6.13;2.17;;;15.80;60.20;;;;;;6051861;22;45347;-62
2023/12/09 00:16:25;;;;;;;7.32;2.30;;;15.80;60.20;;;;;;6066014;22;45134;-62
2023/12/09 00:19:15;;;;;;;5.05;2.05;;;15.80;60.20;;;;;;6051709;22;45236;-62
2023/12/09 00:21:42;;;;;;;6.00;2.33;;;15.80;60.30;;;;;;6027225;22;46280;-63
2023/12/09 00:24:27;;;;;;;5.05;2.22;;;15.80;60.20;;;;;;6042173;22;45099;-63
2023/12/09 00:26:55;;;;;;;4.88;1.98;;;15.80;60.20;;;;;;6032408;22;45178;-63
2023/12/09 00:29:23;;;;;;;7.22;2.45;;;15.80;60.10;;;;;;6048071;22;45256;-63
2023/12/09 00:32:24;;;;;;;3.25;1.77;;;15.80;60.10;;;;;;6044436;22;47329;-63
2023/12/09 00:35:18;;;;;;;4.22;1.95;;;15.80;60.20;;;;;;6040034;22;44890;-63
2023/12/09 00:37:54;;;;;;;5.57;2.67;;;15.80;60.20;;;;;;6043698;22;45030;-63
2023/12/09 00:40:22;;;;;;;8.15;3.55;;;15.80;60.10;;;;;;6078104;22;45184;-62
2023/12/09 00:42:49;;;;;;;12.07;5.70;;;15.80;60.20;;;;;;6043799;22;46318;-63
2023/12/09 00:45:26;;;;;;;11.98;5.50;;;15.80;59.60;;;;;;6038904;22;45026;-63
2023/12/09 00:47:53;;;;;;;7.93;4.28;;;15.80;58.80;;;;;;6018924;22;45089;-63
2023/12/09 00:50:40;;;;;;;7.35;3.58;;;15.70;57.80;;;;;;6041992;22;45217;-63
2023/12/09 00:53:41;;;;;;;8.05;3.58;;;15.70;57.00;;;;;;6054935;22;46344;-62
2023/12/09 00:56:44;;;;;;;7.18;2.92;;;15.80;56.50;;;;;;6077629;22;45143;-63
2023/12/09 00:59:33;;;;;;;6.10;2.80;;;15.70;55.60;;;;;;6074807;22;45071;-61
2023/12/09 01:02:02;;;;;;;5.55;2.75;;;15.70;55.50;;;;;;6031291;22;45226;-62
2023/12/09 01:04:30;;;;;;;4.55;2.63;;;15.70;55.50;;;;;;6053595;22;46233;-63
2023/12/09 01:07:24;;;;;;;6.28;2.78;;;15.80;56.60;;;;;;6056321;22;44952;-62
2023/12/09 01:09:51;;;;;;;3.75;2.10;;;15.80;57.20;;;;;;6080942;22;45109;-62
2023/12/09 01:12:31;;;;;;;4.38;2.35;;;15.80;57.60;;;;;;6043720;22;45148;-62
2023/12/09 01:15:22;;;;;;;8.07;2.17;;;15.80;57.90;;;;;;6046809;22;46713;-63
2023/12/09 01:17:49;;;;;;;5.38;2.33;;;15.80;59.20;;;;;;6038174;22;45138;-63
2023/12/09 01:20:31;;;;;;;3.78;2.08;;;15.80;58.30;;;;;;6042455;22;45661;-62
2023/12/09 01:23:25;;;;;;;4.70;1.95;;;15.80;58.50;;;;;;6059331;22;44980;-63
2023/12/09 01:25:52;;;;;;;4.95;1.80;;;15.80;58.50;;;;;;6070742;22;45226;-63
2023/12/09 01:28:32;;;;;;;6.10;2.03;;;15.80;58.70;;;;;;6064504;22;45204;-62
2023/12/09 01:31:11;;;;;;;5.53;2.17;;;15.80;58.70;;;;;;6052946;22;45481;-63
2023/12/09 01:34:05;;;;;;;6.40;1.88;;;15.80;58.80;;;;;;6050444;22;44850;-62
2023/12/09 01:36:32;;;;;;;5.05;2.08;;;15.80;58.80;;;;;;6024213;22;46596;-63
2023/12/09 01:39:24;;;;;;;4.25;1.50;;;15.90;58.90;;;;;;6055833;22;45205;-62
2023/12/09 01:42:20;;;;;;;4.60;1.80;;;15.90;59.10;;;;;;6083410;22;45340;-62
2023/12/09 01:45:38;;;;;;;3.60;1.70;;;15.90;59.10;;;;;;6023022;22;45193;-62
2023/12/09 01:48:08;;;;;;;4.05;1.92;;;15.90;59.20;;;;;;6007277;22;46189;-63
2023/12/09 01:50:47;;;;;;;3.13;1.42;;;15.90;59.20;;;;;;6044438;22;45060;-63
2023/12/09 01:53:14;;;;;;;4.70;1.60;;;15.90;59.20;;;;;;5996207;22;45180;-64
2023/12/09 01:56:17;;;;;;;4.05;1.60;;;15.90;59.30;;;;;;6035591;22;45281;-62
2023/12/09 01:59:25;;;;;;;3.58;1.40;;;15.90;59.60;;;;;;6027180;22;46000;-63
2023/12/09 02:01:54;;;;;;;3.83;1.67;;;15.90;59.60;;;;;;6035946;22;45469;-62
2023/12/09 02:04:49;;;;;;;2.65;1.48;;;15.90;59.70;;;;;;6052118;22;44786;-63
2023/12/09 02:07:17;;;;;;;4.32;1.48;;;15.80;59.70;;;;;;6029529;22;45007;-63
2023/12/09 02:10:10;;;;;;;4.05;1.30;;;15.90;59.80;;;;;;6019538;22;45285;-63
2023/12/09 02:16:31;;;;;;;3.80;1.35;;;15.90;59.80;;;;;;6023213;22;45308;-62
2023/12/09 02:19:27;;;;;;;3.58;1.23;;;15.90;59.60;;;;;;6035538;22;45383;-63
2023/12/09 02:21:58;;;;;;;2.55;1.25;;;15.90;59.40;;;;;;6030737;22;46330;-63
2023/12/09 02:24:41;;;;;;;4.15;1.35;;;15.90;59.50;;;;;;6042403;22;45327;-63
2023/12/09 02:27:44;;;;;;;2.22;1.13;;;15.90;59.60;;;;;;6032455;22;45300;-63
2023/12/09 02:33:34;;;;;;;3.88;1.27;;;15.90;59.60;;;;;;5994134;22;45371;-63
2023/12/09 02:36:04;;;;;;;4.95;1.40;;;15.90;59.60;;;;;;6037038;22;45414;-63
2023/12/09 02:38:33;;;;;;;3.33;1.17;;;15.90;59.60;;;;;;6050517;22;45228;-63
2023/12/09 02:41:39;;;;;;;3.22;1.20;;;15.90;59.50;;;;;;6021146;22;45012;-63
2023/12/09 02:44:08;;;;;;;3.72;1.45;;;15.90;59.60;;;;;;6036522;22;46576;-63
2023/12/09 02:46:34;;;;;;;4.60;1.67;;;15.90;59.60;;;;;;6030815;22;45063;-63
2023/12/09 02:49:24;;;;;;;1.63;1.17;;;15.90;59.60;;;;;;6046385;22;45276;-63
2023/12/09 02:52:12;;;;;;;2.28;0.93;;;15.90;59.60;;;;;;6052586;22;45344;-63
2023/12/09 02:55:01;;;;;;;2.08;1.02;;;15.90;59.80;;;;;;6063120;22;45250;-63
2023/12/09 02:57:29;;;;;;;2.78;1.20;;;15.90;59.80;;;;;;6020748;22;45234;-64
2023/12/09 03:00:08;;;;;;;3.40;1.30;;;15.90;59.60;;;;;;6015074;22;45122;-63
2023/12/09 03:02:53;;;;;;;3.13;1.25;;;15.90;59.50;;;;;;6032946;22;45217;-64
2023/12/09 03:05:35;;;;;;;3.03;1.20;;;15.90;59.70;;;;;;6088067;22;46367;-64
2023/12/09 03:08:23;;;;;;;3.05;1.17;;;15.90;59.50;;;;;;6039502;22;45539;-64
2023/12/09 03:10:59;;;;;;;5.68;1.65;;;15.90;59.50;;;;;;6027354;22;45307;-64
2023/12/09 03:13:29;;;;;;;3.28;1.35;;;15.90;59.60;;;;;;6030603;22;44876;-64
2023/12/09 03:18:36;;;;;;;3.17;1.05;;;15.90;59.50;;;;;;6029620;22;45033;-64
2023/12/09 03:21:34;;;;;;;5.13;1.40;;;15.90;59.40;;;;;;6045675;22;45490;-64
2023/12/09 03:24:16;;;;;;;5.07;1.50;;;15.90;59.60;;;;;;6040380;22;45438;-64
2023/12/09 03:26:43;;;;;;;4.03;1.30;;;15.90;59.60;;;;;;6028819;22;45603;-63
2023/12/09 03:29:28;;;;;;;1.63;1.00;;;15.90;59.70;;;;;;6027970;22;45555;-64
2023/12/09 03:31:55;;;;;;;2.17;1.00;;;15.90;59.50;;;;;;6044404;22;45205;-65
2023/12/09 03:34:21;;;;;;;2.08;1.02;;;15.90;59.50;;;;;;6079679;22;45185;-65
2023/12/09 03:36:47;;;;;;;4.35;1.02;;;15.90;59.60;;;;;;6062435;22;46433;-64
2023/12/09 03:41:55;;;;;;;2.22;1.33;;;15.90;59.60;;;;;;6039319;22;45052;-65
2023/12/09 03:44:48;;;;;;;4.15;1.30;;;15.90;59.60;;;;;;6057732;22;45191;-65
2023/12/09 03:47:25;;;;;;;3.00;1.00;;;15.90;59.50;;;;;;6038363;22;47467;-65
2023/12/09 03:49:53;;;;;;;2.80;1.15;;;15.90;59.40;;;;;;6027158;22;45346;-65
2023/12/09 03:52:32;;;;;;;3.47;1.10;;;15.90;59.50;;;;;;6019644;22;45178;-65
2023/12/09 03:55:22;;;;;;;3.50;1.13;;;15.90;59.40;;;;;;6033102;22;45375;-65
2023/12/09 03:58:05;;;;;;;3.25;1.25;;;15.90;59.40;;;;;;6036871;22;46352;-64
2023/12/09 04:00:35;;;;;;;3.85;1.20;;;15.90;59.30;;;;;;6049110;22;45031;-65
2023/12/09 04:03:11;;;;;;;2.97;1.23;;;15.90;59.30;;;;;;6028061;22;45289;-65
2023/12/09 04:05:59;;;;;;;3.70;0.90;;;15.90;59.10;;;;;;6037605;22;45383;-64
2023/12/09 04:08:26;;;;;;;4.55;1.30;;;16.00;59.30;;;;;;6045371;22;46363;-65
2023/12/09 04:10:54;;;;;;;4.60;1.45;;;15.90;59.30;;;;;;6044973;22;45213;-65
2023/12/09 04:13:51;;;;;;;2.78;1.10;;;15.90;59.30;;;;;;6050285;22;45198;-64
2023/12/09 04:16:43;;;;;;;2.25;0.93;;;15.90;59.40;;;;;;6062742;22;45175;-65
2023/12/09 04:19:24;;;;;;;2.30;1.20;;;15.90;59.40;;;;;;6053854;22;46644;-64
2023/12/09 04:22:14;;;;;;;4.18;1.13;;;15.90;59.50;;;;;;6068448;22;45011;-64
2023/12/09 04:24:41;;;;;;;3.22;0.98;;;15.90;59.60;;;;;;6042983;22;45188;-64
2023/12/09 04:27:08;;;;;;;2.63;0.98;;;15.90;59.50;;;;;;6026315;22;45113;-64
2023/12/09 04:29:58;;;;;;;2.47;1.23;;;15.90;59.50;;;;;;6030599;22;46274;-64
2023/12/09 04:35:26;;;;;;;3.38;1.13;;;15.90;59.50;;;;;;6052147;22;44980;-63
2023/12/09 04:37:53;;;;;;;2.55;0.93;;;15.90;58.80;;;;;;6037372;22;45252;-63
2023/12/09 04:40:39;;;;;;;2.13;0.88;;;15.90;57.80;;;;;;6046845;22;46287;-63
2023/12/09 04:43:20;;;;;;;3.00;1.00;;;15.90;57.00;;;;;;6011101;22;45543;-63
2023/12/09 04:46:34;;;;;;;1.60;0.70;;;15.90;56.60;;;;;;6054665;22;45229;-63
2023/12/09 04:49:23;;;;;;;2.40;1.08;;;15.90;56.40;;;;;;6028923;22;45225;-63
2023/12/09 04:52:21;;;;;;;4.03;1.20;;;15.90;55.60;;;;;;6053174;22;46477;-63
2023/12/09 04:55:08;;;;;;;3.35;0.82;;;15.90;55.50;;;;;;6033514;22;45220;-63
2023/12/09 04:58:14;;;;;;;3.55;1.40;;;15.80;55.40;;;;;;6041559;22;45279;-63
2023/12/09 05:01:02;;;;;;;2.78;1.00;;;15.80;55.20;;;;;;6040036;22;45000;-63
2023/12/09 05:04:01;;;;;;;3.63;0.93;;;15.80;54.80;;;;;;6046971;22;46398;-63
2023/12/09 05:06:49;;;;;;;2.83;1.00;;;15.80;54.50;;;;;;6058242;22;45213;-63
2023/12/09 05:09:19;;;;;;;3.00;1.00;;;15.80;54.50;;;;;;6046932;22;45233;-63
2023/12/09 05:11:45;;;;;;;4.05;1.20;;;15.80;54.40;;;;;;6044632;22;45245;-63
2023/12/09 05:14:39;;;;;;;2.03;0.90;;;15.80;54.70;;;;;;6062978;22;46381;-63
2023/12/09 05:17:38;;;;;;;2.75;0.95;;;15.70;54.10;;;;;;6038494;22;45317;-63
2023/12/09 05:23:18;;;;;;;3.42;0.90;;;15.70;53.70;;;;;;6060666;22;45172;-62
2023/12/09 05:26:21;;;;;;;2.60;0.80;;;15.80;53.60;;;;;;6051810;22;47676;-63
2023/12/09 05:29:03;;;;;;;4.75;1.30;;;15.70;53.30;;;;;;6059300;22;45209;-62
2023/12/09 05:31:59;;;;;;;3.75;1.08;;;15.80;53.60;;;;;;6101502;22;45342;-62
2023/12/09 05:34:58;;;;;;;3.28;1.13;;;15.80;53.40;;;;;;6051306;22;45102;-63
2023/12/09 05:37:25;;;;;;;1.88;0.95;;;15.70;53.00;;;;;;6043545;22;46345;-63
2023/12/09 05:39:51;;;;;;;1.95;0.90;;;15.70;53.00;;;;;;6052243;22;45062;-63
2023/12/09 05:42:21;;;;;;;2.95;0.80;;;15.70;52.90;;;;;;6041989;22;45195;-62
2023/12/09 05:44:47;;;;;;;2.72;1.25;;;15.70;52.70;;;;;;6039032;22;45315;-62
2023/12/09 05:47:35;;;;;;;3.15;1.00;;;15.80;52.80;;;;;;6055160;22;45401;-62
2023/12/09 05:50:21;;;;;;;3.05;1.00;;;15.70;52.50;;;;;;6026253;22;45087;-62
2023/12/09 05:52:47;;;;;;;3.25;0.85;;;15.70;52.50;;;;;;6059984;22;44957;-62
2023/12/09 05:55:26;;;;;;;3.88;0.80;;;15.70;52.50;;;;;;6055184;22;45305;-62
2023/12/09 05:58:32;;;;;;;1.42;0.90;;;15.70;52.40;;;;;;6042303;22;45283;-62
2023/12/09 06:01:25;;;;;;;3.70;0.98;;;15.70;52.30;;;;;;6031549;22;44831;-62
2023/12/09 06:03:52;;;;;;;4.50;1.10;;;15.70;52.50;;;;;;6018660;22;45507;-62
2023/12/09 06:06:20;;;;;;;2.75;0.98;;;15.70;52.60;;;;;;6045531;22;45373;-61
2023/12/09 06:08:47;;;;;;;1.50;0.75;;;15.70;52.40;;;;;;6044120;22;46378;-62
2023/12/09 06:11:15;;;;;;;3.92;0.80;;;15.70;52.40;;;;;;6042073;22;45181;-62
2023/12/09 06:14:31;;;;;;;1.67;0.88;;;15.70;52.00;;;;;;6055905;22;45305;-62
2023/12/09 06:16:58;;;;;;;2.00;0.70;;;15.80;51.90;;;;;;6038687;22;45211;-62
2023/12/09 06:19:37;;;;;;;1.52;0.55;;;15.70;51.60;;;;;;6069314;22;46555;-62
2023/12/09 06:22:27;;;;;;;2.83;0.93;;;15.80;51.50;;;;;;6077780;22;45114;-63
2023/12/09 06:24:53;;;;;;;1.83;0.80;;;15.80;51.50;;;;;;6036084;22;45425;-63
2023/12/09 06:27:41;;;;;;;1.40;0.80;;;15.70;51.50;;;;;;6048233;22;45158;-63
2023/12/09 06:33:18;;;;;;;2.22;0.90;;;15.70;52.90;;;;;;6018233;22;45220;-63
2023/12/09 06:35:46;;;;;;;3.35;1.15;;;15.70;52.60;;;;;;6065843;22;45149;-62
2023/12/09 06:38:12;;;;;;;2.10;0.98;;;15.70;52.60;;;;;;6052302;22;45160;-63
2023/12/09 06:40:50;;;;;;;2.80;0.77;;;15.70;52.40;;;;;;6027166;22;45903;-62
2023/12/09 06:43:17;;;;;;;3.17;1.00;;;15.70;52.30;;;;;;6029841;22;45450;-63
2023/12/09 06:45:59;;;;;;;2.45;1.00;;;15.70;52.40;;;;;;6013377;22;45451;-63
2023/12/09 06:48:26;;;;;;;1.13;0.70;;;15.70;52.10;;;;;;6028244;22;44900;-63
2023/12/09 06:51:15;;;;;;;3.15;1.08;;;15.70;52.20;;;;;;6096381;22;48283;-63
2023/12/09 06:53:55;;;;;;;1.73;1.00;;;15.70;51.90;;;;;;6062851;22;45138;-62
2023/12/09 06:56:42;;;;;;;2.30;0.90;;;15.70;51.70;;;;;;6042724;22;45299;-62
2023/12/09 06:59:25;;;;;;;2.75;0.98;;;15.70;51.40;;;;;;6040238;22;45054;-62
2023/12/09 07:02:01;;;;;;;1.27;0.88;;;15.70;51.40;;;;;;6044477;22;46063;-63
2023/12/09 07:04:54;;;;;;;1.42;0.90;;;15.70;51.30;;;;;;6027184;22;45149;-63
2023/12/09 07:07:42;;;;;;;1.08;0.88;;;15.70;51.10;;;;;;6098903;22;45264;-62
2023/12/09 07:10:19;;;;;;;2.47;0.90;;;15.70;50.80;;;;;;6042277;22;45022;-62
2023/12/09 07:13:15;;;;;;;1.40;0.60;;;15.70;50.80;;;;;;6029510;22;47507;-61
2023/12/09 07:16:03;;;;;;;2.60;0.93;;;15.70;51.00;;;;;;6029905;22;45166;-62
2023/12/09 07:18:31;;;;;;;2.20;1.20;;;15.60;51.10;;;;;;6009079;22;45178;-62
2023/12/09 07:21:08;;;;;;;2.10;0.70;;;15.60;51.10;;;;;;6038860;22;45146;-62
2023/12/09 07:23:36;;;;;;;3.03;1.15;;;15.60;51.20;;;;;;6044289;22;46163;-62
2023/12/09 07:26:30;;;;;;;2.75;0.90;;;15.60;51.20;;;;;;6078430;22;45149;-62
2023/12/09 07:29:25;;;;;;;4.22;0.90;;;15.60;51.10;;;;;;6045662;22;45109;-62
2023/12/09 07:31:52;;;;;;;2.10;1.00;;;15.60;51.00;;;;;;6052861;22;45234;-62
2023/12/09 07:34:36;;;;;;;2.55;0.80;;;15.60;51.20;;;;;;6043870;22;46520;-62
2023/12/09 07:37:25;;;;;;;2.25;0.90;;;15.60;51.00;;;;;;6057672;22;45267;-62
2023/12/09 07:39:51;;;;;;;3.45;1.10;;;15.60;51.10;;;;;;6043865;22;45272;-61
2023/12/09 07:42:31;;;;;;;1.45;0.80;;;15.60;51.30;;;;;;6059965;22;45118;-62
2023/12/09 07:44:57;;;;;;;1.83;0.90;;;15.60;51.20;;;;;;6029038;22;46915;-62
2023/12/09 07:47:46;;;;;;;2.45;0.70;;;15.60;51.10;;;;;;6033421;22;45055;-62
2023/12/09 07:50:17;;;;;;;2.00;1.02;;;15.60;51.10;;;;;;6037418;22;45051;-62
2023/12/09 07:53:05;;;;;;;2.05;0.82;;;15.60;51.10;;;;;;6059313;22;45349;-62
2023/12/09 07:56:01;;;;;;;2.05;0.90;;;15.60;51.10;;;;;;6027419;22;46791;-62
2023/12/09 07:58:30;;;;;;;1.98;0.95;;;15.60;51.10;;;;;;6022843;22;45215;-62
2023/12/09 08:01:06;;;;;;;1.98;0.85;;;15.60;51.20;;;;;;6029333;22;45264;-63
2023/12/09 08:03:34;;;;;;;1.02;0.70;;;15.60;51.10;;;;;;6032405;22;45146;-63
2023/12/09 08:06:04;;;;;;;2.25;0.63;;;15.60;51.20;;;;;;6066940;22;46015;-63
2023/12/09 08:09:04;;;;;;;2.08;0.55;;;15.50;51.20;;;;;;6043586;22;45111;-63
2023/12/09 08:11:31;;;;;;;2.67;0.60;;;15.50;51.20;;;;;;6039733;22;45373;-63
2023/12/09 08:13:58;;;;;;;1.70;0.82;;;15.50;52.40;;;;;;6035391;22;45076;-63
2023/12/09 08:16:26;;;;;;;2.20;0.85;;;15.50;51.20;;;;;;6036300;22;46287;-63
2023/12/09 08:19:17;;;;;;;2.13;0.82;;;15.50;51.10;;;;;;6050568;22;45317;-63
2023/12/09 08:22:07;;;;;;;1.73;0.88;;;15.50;51.10;;;;;;6040568;22;45291;-62
2023/12/09 08:25:03;;;;;;;2.22;0.90;;;15.50;51.10;;;;;;6051022;22;45150;-62
2023/12/09 08:27:53;;;;;;;1.50;0.95;;;15.60;51.30;;;;;;6051419;22;46295;-62
2023/12/09 08:30:35;;;;;;;1.52;0.70;;;15.60;51.30;;;;;;6043282;22;45195;-62
2023/12/09 08:33:03;;;;;;;1.92;0.80;;;15.60;51.50;;;;;;6054122;22;45123;-63
2023/12/09 08:35:51;;;;;;;2.25;0.80;;;15.60;51.70;;;;;;6056383;22;44859;-63
2023/12/09 08:38:21;;;;;;;1.63;0.70;;;15.60;52.50;;;;;;6036525;22;46523;-62
2023/12/09 08:41:12;;;;;;;2.22;0.90;;;15.60;52.80;;;;;;6040807;22;45138;-62
2023/12/09 08:43:54;;;;;;;2.70;1.10;;;15.60;53.10;;;;;;6035358;22;44950;-62
2023/12/09 08:46:51;;;;;;;2.22;0.80;;;15.60;53.10;;;;;;6084464;22;45320;-63
2023/12/09 08:49:30;;;;;;;1.65;0.88;;;15.60;54.00;;;;;;6023479;22;46303;-62
2023/12/09 08:52:28;;;;;;;1.23;0.70;;;15.60;53.90;;;;;;6051362;22;45071;-62
2023/12/09 08:57:56;;;;;;;3.00;0.68;;;15.70;55.00;;;;;;6073805;22;45244;-61
2023/12/09 09:00:39;;;;;;;2.10;0.70;;;15.70;54.90;;;;;;6060359;22;46721;-61
2023/12/09 09:03:46;;;;;;;2.40;0.73;;;15.70;55.40;;;;;;6039939;22;45366;-61
2023/12/09 09:06:39;;;;;;;1.80;0.90;;;15.70;55.50;;;;;;6050602;22;45328;-61
2023/12/09 09:09:27;;;;;;;2.17;0.90;;;15.70;55.70;;;;;;6057050;22;45341;-61
2023/12/09 09:11:57;;;;;;;1.77;0.60;;;15.60;55.40;;;;;;6035733;22;47213;-61
2023/12/09 09:14:46;;;;;;;1.55;0.80;;;15.60;55.50;;;;;;6058419;22;45337;-61
2023/12/09 09:17:13;;;;;;;0.98;0.63;;;15.70;55.80;;;;;;6028188;22;45440;-61
2023/12/09 09:19:56;;;;;;;0.82;0.70;;;15.70;55.90;;;;;;6047221;22;45290;-61
2023/12/09 09:22:41;;;;;;;1.60;0.70;;;15.70;56.00;;;;;;6039751;22;46105;-61
2023/12/09 09:25:09;;;;;;;1.95;0.65;;;15.70;56.30;;;;;;6033002;22;45244;-61
2023/12/09 09:27:55;;;;;;;0.95;0.47;;;15.70;56.00;;;;;;6042155;22;45229;-61
2023/12/09 09:30:42;;;;;;;2.08;0.90;;;15.70;56.10;;;;;;6021545;22;45028;-61
2023/12/09 09:33:09;;;;;;;2.45;0.90;;;15.70;56.10;;;;;;6015842;22;46193;-61
2023/12/09 09:36:09;;;;;;;3.55;0.80;;;15.70;55.90;;;;;;6029125;22;45135;-61
2023/12/09 09:38:59;;;;;;;2.90;0.90;;;15.70;56.20;;;;;;6030752;22;45181;-61
2023/12/09 10:47:57;;;;;;;2.70;0.90;;;15.90;58.40;;;;;;6075021;22;45096;-62
2023/12/09 10:50:37;;;;;;;2.22;0.90;;;15.90;58.50;;;;;;5951337;22;45191;-61
2023/12/09 10:53:04;;;;;;;2.35;1.08;;;15.90;58.50;;;;;;5961586;22;45244;-61
2023/12/09 10:55:46;;;;;;;2.15;0.82;;;16.00;58.80;;;;;;5943289;22;45524;-62
2023/12/09 10:58:30;;;;;;;5.05;1.02;;;16.00;58.80;;;;;;5975907;22;47216;-61
2023/12/09 11:01:23;;;;;;;2.53;0.90;;;16.00;58.80;;;;;;5997240;22;45330;-62
2023/12/09 11:03:51;;;;;;;1.63;0.80;;;16.00;58.50;;;;;;5953429;22;45395;-62
2023/12/09 11:09:52;;;;;;;2.53;0.70;;;16.00;58.60;;;;;;5909098;22;45867;-62
2023/12/09 11:12:27;;;;;;;3.03;0.93;;;16.00;58.50;;;;;;5990108;22;45281;-62
2023/12/09 11:14:59;;;;;;;3.80;0.90;;;16.00;58.60;;;;;;5978583;22;45082;-62
2023/12/09 11:17:45;;;;;;;1.67;0.80;;;16.00;58.70;;;;;;6000401;22;45063;-62
2023/12/09 11:20:39;;;;;;;2.58;0.80;;;15.90;58.60;;;;;;5968334;22;45815;-62
2023/12/09 11:23:09;;;;;;;2.03;0.82;;;15.90;58.30;;;;;;5979550;22;44988;-62
2023/12/09 11:25:57;;;;;;;2.08;0.82;;;15.90;58.50;;;;;;5991845;22;45146;-62
2023/12/09 11:28:25;;;;;;;2.05;0.80;;;16.00;58.50;;;;;;5990042;22;45162;-62
2023/12/09 11:37:19;;;;;;;5.60;1.10;;;16.00;58.70;;;;;;5950211;22;45204;-62
2023/12/09 11:40:00;;;;;;;1.30;0.80;;;16.00;58.70;;;;;;5961931;22;45035;-62
2023/12/09 11:42:30;;;;;;;3.00;0.98;;;16.00;59.10;;;;;;5943697;22;47290;-62
2023/12/09 11:45:08;;;;;;;3.78;0.93;;;16.00;59.10;;;;;;5968351;22;44801;-62
2023/12/09 11:47:54;;;;;;;3.92;0.65;;;15.90;59.00;;;;;;5990813;22;45322;-62
2023/12/09 11:50:24;;;;;;;2.00;0.70;;;16.00;59.20;;;;;;5965368;22;44925;-62
2023/12/09 11:53:13;;;;;;;1.55;0.65;;;16.00;59.40;;;;;;6004249;22;46571;-62
2023/12/09 11:55:43;;;;;;;1.85;0.50;;;16.00;59.50;;;;;;5967938;22;45298;-62
2023/12/09 11:58:12;;;;;;;2.63;0.73;;;16.00;59.60;;;;;;5962223;22;45184;-62
2023/12/09 12:03:48;;;;;;;2.42;0.90;;;16.00;59.70;;;;;;5971269;22;45293;-62
2023/12/09 12:06:24;;;;;;;2.58;0.90;;;15.90;59.70;;;;;;5977597;22;45202;-62
2023/12/09 12:09:27;;;;;;;1.63;0.73;;;15.90;59.90;;;;;;5987016;22;45140;-62
2023/12/09 12:12:22;;;;;;;0.73;0.60;;;16.00;59.70;;;;;;5947858;22;45189;-61
2023/12/09 12:15:11;;;;;;;2.38;0.70;;;16.00;59.70;;;;;;5981381;22;47281;-62
2023/12/09 12:18:12;;;;;;;3.78;0.90;;;16.00;60.30;;;;;;5975101;22;45174;-62
2023/12/09 12:21:06;;;;;;;1.30;0.68;;;16.00;60.20;;;;;;5990741;22;45306;-62
2023/12/09 12:23:34;;;;;;;1.52;0.60;;;16.00;60.20;;;;;;5959854;22;45437;-62
2023/12/09 12:26:20;;;;;;;2.80;0.75;;;16.00;60.00;;;;;;5981902;22;46017;-62
2023/12/09 12:28:51;;;;;;;1.23;0.70;;;16.00;60.00;;;;;;5998013;22;44830;-62
2023/12/09 12:31:20;;;;;;;1.35;0.52;;;16.00;60.00;;;;;;5966581;22;45381;-62
2023/12/09 12:33:47;;;;;;;1.92;0.60;;;16.00;60.00;;;;;;5990582;22;44780;-62
2023/12/09 12:36:14;;;;;;;3.65;0.88;;;16.00;60.00;;;;;;5971902;22;45710;-62
2023/12/09 12:38:41;;;;;;;2.58;0.90;;;16.00;60.10;;;;;;5964143;22;45245;-62
2023/12/09 12:48:02;;;;;;;0.85;0.40;;;16.00;60.20;;;;;;5937311;22;45675;-62
2023/12/09 12:50:29;;;;;;;2.42;0.60;;;16.00;60.10;;;;;;5959407;22;45294;-62
2023/12/09 12:53:22;;;;;;;1.63;0.60;;;16.00;60.10;;;;;;5967879;22;45190;-62
2023/12/09 12:56:02;;;;;;;0.98;0.60;;;16.00;60.20;;;;;;5954648;22;45448;-62
2023/12/09 12:58:30;;;;;;;2.10;0.60;;;16.00;60.10;;;;;;5970867;22;47432;-62
2023/12/09 13:04:26;;;;;;;1.85;0.68;;;16.00;60.10;;;;;;5936202;22;45418;-62
2023/12/09 13:09:38;;;;;;;0.95;0.40;;;16.00;60.00;;;;;;5996324;22;46060;-62
2023/12/09 13:12:09;;;;;;;2.08;0.47;;;16.00;60.10;;;;;;5953630;22;45056;-62
2023/12/09 13:17:42;;;;;;;0.90;0.50;;;16.00;60.20;;;;;;5973647;22;44939;-62
2023/12/09 13:23:21;;;;;;;2.47;0.50;;;16.00;60.30;;;;;;5953973;22;45148;-62
2023/12/09 13:26:10;;;;;;;1.10;0.60;;;16.00;60.20;;;;;;5959852;22;45047;-62
2023/12/09 13:28:55;;;;;;;1.65;0.68;;;16.00;60.20;;;;;;5973098;22;45056;-62
2023/12/09 13:31:21;;;;;;;0.55;0.40;;;16.00;60.20;;;;;;5954512;22;46306;-62
2023/12/09 13:34:09;;;;;;;1.60;0.40;;;16.00;60.20;;;;;;5962090;22;45075;-62
2023/12/09 13:36:39;;;;;;;0.82;0.30;;;16.00;60.30;;;;;;5986970;22;44801;-62
2023/12/09 13:42:08;;;;;;;1.52;0.55;;;16.00;60.30;;;;;;5973753;22;45120;-62
2023/12/09 13:44:35;;;;;;;2.85;0.50;;;16.00;60.20;;;;;;5959245;22;45230;-62
2023/12/09 13:47:24;;;;;;;1.85;0.38;;;16.00;60.10;;;;;;6004173;22;45037;-62
2023/12/09 13:50:07;;;;;;;0.73;0.30;;;16.00;60.10;;;;;;5970153;22;45436;-62
2023/12/09 13:52:47;;;;;;;0.82;0.30;;;16.00;59.90;;;;;;5972442;22;45661;-62
2023/12/09 13:55:33;;;;;;;0.80;0.40;;;16.00;59.50;;;;;;5995256;22;45248;-62
2023/12/09 13:57:59;;;;;;;1.25;0.40;;;16.00;59.40;;;;;;5990464;22;45096;-62
2023/12/09 14:00:27;;;;;;;1.27;0.50;;;15.90;59.20;;;;;;5995695;22;45139;-62
2023/12/09 14:03:12;;;;;;;1.27;0.38;;;16.00;59.00;;;;;;6002966;22;47280;-62
2023/12/09 14:05:39;;;;;;;0.52;0.40;;;15.90;58.60;;;;;;5980761;22;45297;-61
2023/12/09 14:08:16;;;;;;;2.10;0.50;;;15.90;58.50;;;;;;5975888;22;45394;-61
2023/12/09 14:13:54;;;;;;;0.47;0.30;;;15.90;58.40;;;;;;5943782;22;45673;-61
2023/12/09 14:16:31;;;;;;;1.70;0.55;;;15.90;58.20;;;;;;5955773;22;44903;-61
2023/12/09 14:19:28;;;;;;;0.82;0.32;;;15.90;58.90;;;;;;6003734;22;45262;-61
2023/12/09 14:22:05;;;;;;;0.30;0.30;;;15.90;59.20;;;;;;5995359;22;44836;-62
2023/12/09 14:25:08;;;;;;;1.17;0.30;;;15.90;59.20;;;;;;5986070;22;45334;-62
2023/12/09 14:27:40;;;;;;;0.82;0.40;;;16.00;59.20;;;;;;5957197;22;45270;-62
2023/12/09 14:30:46;;;;;;;1.23;0.30;;;16.00;58.90;;;;;;6001754;22;45236;-62
2023/12/09 14:33:13;;;;;;;0.25;0.20;;;16.10;59.20;;;;;;5978347;22;45278;-62
2023/12/09 14:36:02;;;;;;;0.63;0.30;;;16.10;58.80;;;;;;5972055;22;45596;-62
2023/12/09 14:38:28;;;;;;;1.40;0.40;;;16.10;58.80;;;;;;5976511;22;45000;-62
2023/12/09 14:41:09;;;;;;;0.90;0.45;;;16.10;59.00;;;;;;5976994;22;45256;-62
2023/12/09 14:44:03;;;;;;;0.38;0.17;;;16.10;58.90;;;;;;5974368;22;45238;-61
2023/12/09 14:46:30;;;;;;;1.35;0.40;;;16.10;59.30;;;;;;5973599;22;46320;-62
2023/12/09 14:49:19;;;;;;;0.60;0.30;;;16.20;59.30;;;;;;5972127;22;45249;-62
2023/12/09 14:52:00;;;;;;;1.45;0.30;;;16.10;59.50;;;;;;5973095;22;45405;-62
2023/12/09 14:55:10;;;;;;;0.65;0.40;;;16.10;59.60;;;;;;5953962;22;45252;-62
2023/12/09 14:58:25;;;;;;;1.20;0.30;;;16.10;59.40;;;;;;5974253;22;46367;-62
2023/12/09 15:01:17;;;;;;;1.55;0.30;;;16.10;59.60;;;;;;5981105;22;45302;-62
2023/12/09 15:04:06;;;;;;;1.77;0.40;;;16.10;59.60;;;;;;5997568;22;45009;-62
2023/12/09 15:06:33;;;;;;;0.50;0.30;;;16.10;59.70;;;;;;5990321;22;45302;-62
2023/12/09 15:09:19;;;;;;;0.55;0.30;;;16.10;59.80;;;;;;5971896;22;46592;-63
2023/12/09 15:12:11;;;;;;;0.38;0.28;;;16.10;59.90;;;;;;5986570;22;45151;-62
2023/12/09 15:14:38;;;;;;;0.45;0.20;;;16.10;59.80;;;;;;5992857;22;45224;-63
2023/12/09 15:17:17;;;;;;;0.68;0.40;;;16.10;59.70;;;;;;5990029;22;45230;-63
2023/12/09 15:19:44;;;;;;;1.33;0.90;;;16.10;59.60;;;;;;5961517;22;46990;-63
2023/12/09 15:22:35;;;;;;;0.85;0.68;;;16.10;59.60;;;;;;5997451;22;45338;-62
2023/12/09 15:25:28;;;;;;;0.60;0.60;;;16.20;59.70;;;;;;6021712;22;45084;-62
2023/12/09 15:28:00;;;;;;;0.57;0.52;;;16.20;59.60;;;;;;5946677;22;45277;-62
2023/12/09 15:30:34;;;;;;;1.25;0.75;;;16.20;59.60;;;;;;6010522;22;45915;-62
2023/12/09 15:36:56;;;;;;;0.70;0.60;;;16.10;59.80;;;;;;5951039;22;45048;-63
2023/12/09 15:39:23;;;;;;;1.85;0.82;;;16.10;60.00;;;;;;5966112;22;44874;-62
2023/12/09 15:42:13;;;;;;;1.17;0.70;;;16.10;60.00;;;;;;5971107;22;47205;-62
2023/12/09 15:45:04;;;;;;;1.02;0.52;;;16.10;60.30;;;;;;5994855;22;45187;-62
2023/12/09 15:47:50;;;;;;;0.60;0.60;;;16.10;60.00;;;;;;5990765;22;45222;-62
2023/12/09 15:50:36;;;;;;;1.30;0.75;;;16.10;60.10;;;;;;5984533;22;45308;-62
2023/12/09 15:53:18;;;;;;;1.52;0.70;;;16.10;60.00;;;;;;5962316;22;46322;-62
2023/12/09 15:55:46;;;;;;;1.38;1.02;;;16.10;60.00;;;;;;5989889;22;45284;-62
2023/12/09 15:58:15;;;;;;;1.92;0.95;;;16.10;60.00;;;;;;5970126;22;45076;-63
2023/12/09 16:00:42;;;;;;;0.95;0.70;;;16.10;60.00;;;;;;5988856;22;45225;-62
2023/12/09 16:07:23;;;;;;;0.90;0.70;;;16.10;60.10;;;;;;5974380;22;44775;-62
2023/12/09 16:09:55;;;;;;;0.98;0.70;;;16.10;59.90;;;;;;5975752;22;45039;-62
2023/12/09 16:12:49;;;;;;;1.13;0.80;;;16.20;60.00;;;;;;6000148;22;45249;-62
2023/12/09 16:15:17;;;;;;;1.00;0.70;;;16.20;60.20;;;;;;5971590;22;46180;-63